Time;durP1;ratioP1;P1;durP2;ratioP2;P2;SDS_P1;SDS_P2;PMS_P1;PMS_P2;Temp;Humidity;BMP_temperature;BMP_pressure;BME280_temperature;BME280_humidity;BME280_pressure;Samples;Min_cycle;Max_cycle;Signal;HPM_P1;HPM_P2
2020/12/19 00:02:06;;;;;;;99.05;48.78;;;;;;;;;;6233214;23;20229;-95
2020/12/19 00:04:34;;;;;;;117.70;52.58;;;;;;;;;;6238351;23;20212;-96
2020/12/19 00:07:08;;;;;;;110.88;50.42;;;;;;;;;;6237169;23;20174;-95
2020/12/19 00:09:36;;;;;;;111.13;50.25;;;;;;;;;;6240901;23;20173;-96
2020/12/19 00:12:03;;;;;;;125.43;47.38;;;;;;;;;;6240073;23;20179;-96
2020/12/19 00:14:31;;;;;;;143.82;43.85;;;;;;;;;;6238801;23;20206;-96
2020/12/19 00:26:03;;;;;;;127.88;36.08;;;;;;;;;;6143283;23;20234;-95
2020/12/19 00:28:29;;;;;;;142.93;41.05;;;;;;;;;;6223402;23;20177;-95
2020/12/19 00:30:56;;;;;;;175.77;37.13;;;;;;;;;;6232365;23;20692;-95
2020/12/19 00:33:22;;;;;;;212.35;37.85;;;;;;;;;;6237334;23;20318;-95
2020/12/19 00:35:53;;;;;;;195.65;36.58;;;;;;;;;;6238315;23;20195;-96
2020/12/19 00:38:28;;;;;;;145.25;36.55;;;;;;;;;;6243356;23;20215;-95
2020/12/19 00:40:54;;;;;;;188.35;44.13;;;;;;;;;;6241841;23;20185;-96
2020/12/19 00:43:28;;;;;;;146.48;37.40;;;;;;;;;;6234956;23;20227;-96
2020/12/19 00:45:54;;;;;;;202.95;38.83;;;;;;;;;;6230679;23;20739;-96
2020/12/19 00:48:20;;;;;;;160.57;37.58;;;;;;;;;;6236269;23;20185;-96
2020/12/19 00:50:46;;;;;;;178.30;38.35;;;;;;;;;;6238299;23;20244;-96
2020/12/19 00:53:14;;;;;;;161.00;36.90;;;;;;;;;;6237490;23;20178;-96
2020/12/19 00:55:40;;;;;;;250.27;41.53;;;;;;;;;;6238043;23;20279;-96
2020/12/19 00:58:06;;;;;;;218.27;61.13;;;;;;;;;;6233001;23;20192;-96
2020/12/19 01:00:34;;;;;;;174.52;61.83;;;;;;;;;;6236408;23;20175;-96
2020/12/19 01:06:06;;;;;;;221.30;70.50;;;;;;;;;;6241829;23;20256;-96
2020/12/19 01:08:32;;;;;;;165.32;56.60;;;;;;;;;;6234607;23;20178;-95
2020/12/19 01:10:59;;;;;;;222.13;58.63;;;;;;;;;;6234133;23;20235;-96
2020/12/19 01:14:03;;;;;;;235.55;62.05;;;;;;;;;;6243825;23;20178;-96
2020/12/19 01:16:35;;;;;;;161.20;52.38;;;;;;;;;;6241566;23;20248;-96
2020/12/19 01:22:08;;;;;;;200.52;50.72;;;;;;;;;;6237267;22;20252;-96
2020/12/19 01:27:54;;;;;;;133.13;43.55;;;;;;;;;;6240355;23;20200;-95
2020/12/19 01:30:21;;;;;;;127.35;48.30;;;;;;;;;;6236878;23;20181;-96
2020/12/19 01:35:44;;;;;;;141.48;47.45;;;;;;;;;;6218091;23;20191;-96
2020/12/19 01:49:09;;;;;;;158.82;48.03;;;;;;;;;;6237152;22;20196;-96
2020/12/19 02:15:58;;;;;;;122.53;41.85;;;;;;;;;;6194590;22;20245;-96
2020/12/19 04:12:36;;;;;;;123.70;37.35;;;;;;;;;;6212806;22;20192;-96
2020/12/19 04:15:04;;;;;;;94.88;35.72;;;;;;;;;;6242011;23;20215;-96
2020/12/19 04:17:31;;;;;;;104.88;36.38;;;;;;;;;;6246423;23;20229;-96
2020/12/19 04:22:34;;;;;;;73.53;29.55;;;;;;;;;;6254441;22;20214;-96
2020/12/19 04:25:00;;;;;;;72.03;29.73;;;;;;;;;;6242109;23;20177;-95
2020/12/19 04:27:41;;;;;;;68.40;27.42;;;;;;;;;;6242756;23;20180;-95
2020/12/19 04:32:44;;;;;;;77.82;27.25;;;;;;;;;;6243814;22;20185;-96
2020/12/19 04:37:47;;;;;;;79.45;28.13;;;;;;;;;;6243536;23;20180;-96
2020/12/19 04:40:22;;;;;;;76.00;27.35;;;;;;;;;;6243779;23;20174;-96
2020/12/19 04:42:49;;;;;;;75.45;27.17;;;;;;;;;;6216147;23;20169;-95
2020/12/19 04:47:55;;;;;;;67.68;28.70;;;;;;;;;;6214444;22;20290;-96
2020/12/19 04:50:46;;;;;;;51.17;25.63;;;;;;;;;;6249654;22;20192;-96
2020/12/19 04:53:17;;;;;;;72.05;28.98;;;;;;;;;;6245017;23;20173;-94
2020/12/19 05:24:52;;;;;;;86.05;29.38;;;;;;;;;;6233703;22;20226;-96
2020/12/19 05:27:25;;;;;;;73.88;26.30;;;;;;;;;;6240330;23;20173;-96
2020/12/19 05:29:52;;;;;;;162.70;78.85;;;;;;;;;;6237351;23;20173;-95
2020/12/19 05:35:05;;;;;;;76.10;31.15;;;;;;;;;;6229715;22;20215;-96
2020/12/19 05:37:34;;;;;;;72.53;28.15;;;;;;;;;;6272823;23;20182;-96
2020/12/19 05:45:29;;;;;;;92.93;28.05;;;;;;;;;;6241050;22;20196;-95
2020/12/19 05:48:11;;;;;;;75.80;26.20;;;;;;;;;;6269628;23;20161;-95
2020/12/19 05:50:50;;;;;;;64.60;27.63;;;;;;;;;;6272644;23;20160;-96
2020/12/19 05:53:22;;;;;;;76.65;25.23;;;;;;;;;;6269382;23;20173;-95
2020/12/19 05:58:48;;;;;;;63.47;25.92;;;;;;;;;;6270883;23;20185;-96
2020/12/19 06:01:50;;;;;;;65.47;25.85;;;;;;;;;;6273281;23;20181;-96
2020/12/19 06:04:21;;;;;;;62.13;25.40;;;;;;;;;;6261123;22;20164;-96
2020/12/19 06:10:02;;;;;;;62.67;26.85;;;;;;;;;;6270095;22;20257;-96
2020/12/19 06:12:54;;;;;;;82.40;29.92;;;;;;;;;;6245727;23;20204;-96
2020/12/19 06:15:43;;;;;;;70.75;25.88;;;;;;;;;;6273735;22;20180;-96
2020/12/19 06:24:41;;;;;;;74.13;26.75;;;;;;;;;;6256283;22;20205;-96
2020/12/19 06:27:26;;;;;;;81.28;28.45;;;;;;;;;;6230188;23;20191;-96
2020/12/19 06:33:16;;;;;;;69.28;25.48;;;;;;;;;;6263002;22;20194;-96
2020/12/19 06:44:51;;;;;;;79.93;27.73;;;;;;;;;;6178363;23;20204;-96
2020/12/19 06:50:33;;;;;;;64.82;27.13;;;;;;;;;;6204744;23;20178;-96
2020/12/19 06:56:41;;;;;;;68.93;27.45;;;;;;;;;;6122100;23;20219;-96
2020/12/19 06:59:18;;;;;;;64.68;27.50;;;;;;;;;;6207427;23;20161;-96
2020/12/19 07:02:01;;;;;;;62.03;26.10;;;;;;;;;;6209542;23;20170;-96
2020/12/19 07:04:39;;;;;;;69.90;26.30;;;;;;;;;;6206604;23;20229;-96
2020/12/19 07:07:08;;;;;;;76.72;26.95;;;;;;;;;;6207091;23;20241;-96
2020/12/19 07:09:38;;;;;;;63.50;26.20;;;;;;;;;;6180898;23;20182;-96
2020/12/19 07:12:06;;;;;;;64.57;28.58;;;;;;;;;;6222741;23;20202;-96
2020/12/19 07:14:39;;;;;;;71.43;29.45;;;;;;;;;;6266904;23;20176;-96
2020/12/19 07:17:17;;;;;;;58.92;27.05;;;;;;;;;;6239272;23;20191;-96
2020/12/19 07:19:50;;;;;;;54.88;27.38;;;;;;;;;;6267169;23;20161;-96
2020/12/19 07:22:18;;;;;;;63.05;28.02;;;;;;;;;;6268841;23;20197;-96
2020/12/19 07:24:44;;;;;;;59.83;27.08;;;;;;;;;;6268538;23;20161;-96
2020/12/19 07:27:18;;;;;;;75.38;27.20;;;;;;;;;;6242925;23;20195;-96
2020/12/19 07:29:59;;;;;;;66.25;27.60;;;;;;;;;;6270584;23;20171;-96
2020/12/19 07:32:25;;;;;;;69.47;28.85;;;;;;;;;;6259308;23;20212;-95
2020/12/19 07:34:53;;;;;;;64.50;28.42;;;;;;;;;;6257068;23;20192;-96
2020/12/19 07:37:20;;;;;;;82.85;32.38;;;;;;;;;;6263596;23;20229;-95
2020/12/19 07:39:46;;;;;;;76.85;35.60;;;;;;;;;;6241015;23;20188;-96
2020/12/19 07:42:15;;;;;;;80.95;34.15;;;;;;;;;;6266178;23;20164;-96
2020/12/19 07:44:41;;;;;;;73.07;33.80;;;;;;;;;;6264795;23;20233;-96
2020/12/19 07:47:08;;;;;;;71.00;31.23;;;;;;;;;;6260776;23;20201;-96
2020/12/19 07:49:35;;;;;;;79.68;29.25;;;;;;;;;;6269989;22;20233;-96
2020/12/19 07:52:07;;;;;;;79.75;33.05;;;;;;;;;;6263482;23;20936;-95
2020/12/19 07:54:33;;;;;;;79.63;32.97;;;;;;;;;;6257828;23;20205;-96
2020/12/19 07:57:00;;;;;;;86.45;34.70;;;;;;;;;;6256777;23;20253;-96
2020/12/19 07:59:26;;;;;;;58.53;27.52;;;;;;;;;;6257678;23;20228;-96
2020/12/19 08:01:53;;;;;;;48.20;24.88;;;;;;;;;;6258114;23;20249;-96
2020/12/19 08:04:19;;;;;;;51.15;25.55;;;;;;;;;;6258409;23;20181;-96
2020/12/19 08:06:46;;;;;;;52.13;26.05;;;;;;;;;;6257793;23;20327;-96
2020/12/19 08:12:12;;;;;;;53.53;27.13;;;;;;;;;;6262331;23;20235;-95
2020/12/19 08:14:39;;;;;;;45.75;25.80;;;;;;;;;;6261802;23;20181;-96
2020/12/19 08:17:09;;;;;;;55.70;28.33;;;;;;;;;;6259497;23;20254;-96
2020/12/19 08:19:36;;;;;;;52.15;28.77;;;;;;;;;;6258845;23;20177;-96
2020/12/19 08:22:05;;;;;;;60.60;31.35;;;;;;;;;;6258912;23;20175;-96
2020/12/19 08:24:33;;;;;;;59.42;30.20;;;;;;;;;;6262240;23;20176;-96
2020/12/19 08:27:17;;;;;;;63.22;32.03;;;;;;;;;;6262642;23;20256;-96
2020/12/19 08:29:46;;;;;;;64.30;31.90;;;;;;;;;;6262304;23;20222;-95
2020/12/19 08:32:14;;;;;;;57.85;28.95;;;;;;;;;;6262285;23;20278;-96
2020/12/19 08:34:40;;;;;;;60.45;29.67;;;;;;;;;;6260272;23;20240;-96
2020/12/19 08:37:09;;;;;;;62.30;30.88;;;;;;;;;;6263129;23;20193;-96
2020/12/19 08:39:35;;;;;;;65.43;32.42;;;;;;;;;;6261844;23;20178;-96
2020/12/19 08:42:10;;;;;;;58.17;31.20;;;;;;;;;;6264776;23;20177;-96
2020/12/19 08:44:42;;;;;;;62.25;32.35;;;;;;;;;;6271106;23;20164;-96
2020/12/19 08:47:14;;;;;;;69.90;34.88;;;;;;;;;;6245173;22;20206;-96
2020/12/19 08:49:40;;;;;;;72.10;37.03;;;;;;;;;;6230741;23;20200;-94
2020/12/19 08:52:06;;;;;;;71.13;35.20;;;;;;;;;;6225745;23;20267;-95
2020/12/19 08:54:32;;;;;;;63.70;34.85;;;;;;;;;;6223288;23;20176;-95
2020/12/19 08:56:58;;;;;;;61.50;33.47;;;;;;;;;;6222775;23;20183;-94
2020/12/19 08:59:26;;;;;;;78.05;36.95;;;;;;;;;;6221794;23;20183;-96
2020/12/19 09:01:53;;;;;;;57.65;28.45;;;;;;;;;;6218254;23;20192;-96
2020/12/19 09:04:20;;;;;;;60.20;30.00;;;;;;;;;;6216110;23;20183;-95
2020/12/19 09:06:47;;;;;;;56.42;28.85;;;;;;;;;;6220686;23;20203;-96
2020/12/19 09:09:17;;;;;;;62.45;33.58;;;;;;;;;;6222693;23;20201;-95
2020/12/19 09:11:43;;;;;;;61.33;32.47;;;;;;;;;;6223916;23;20184;-95
2020/12/19 09:14:10;;;;;;;55.13;31.20;;;;;;;;;;6223625;23;20607;-93
2020/12/19 09:16:45;;;;;;;63.92;37.35;;;;;;;;;;6225828;23;20822;-95
2020/12/19 09:19:12;;;;;;;78.65;42.65;;;;;;;;;;6226639;23;20185;-96
2020/12/19 09:21:39;;;;;;;84.10;41.20;;;;;;;;;;6227818;23;20176;-96
2020/12/19 09:24:05;;;;;;;67.03;36.53;;;;;;;;;;6224630;23;20182;-95
2020/12/19 09:26:31;;;;;;;72.68;36.13;;;;;;;;;;6226398;23;20197;-93
2020/12/19 09:28:57;;;;;;;81.93;40.90;;;;;;;;;;6226972;23;20187;-94
2020/12/19 09:31:26;;;;;;;74.13;39.20;;;;;;;;;;6226740;23;20415;-94
2020/12/19 09:33:52;;;;;;;67.72;38.00;;;;;;;;;;6232552;23;20404;-94
2020/12/19 09:36:18;;;;;;;67.40;38.53;;;;;;;;;;6237559;23;20247;-94
2020/12/19 09:38:45;;;;;;;72.22;38.10;;;;;;;;;;6224308;23;20407;-95
2020/12/19 09:41:11;;;;;;;75.32;36.65;;;;;;;;;;6224947;23;20182;-95
2020/12/19 09:43:39;;;;;;;74.07;39.25;;;;;;;;;;6226698;23;20189;-95
2020/12/19 09:46:05;;;;;;;77.67;39.13;;;;;;;;;;6223024;23;20240;-94
2020/12/19 09:48:31;;;;;;;70.43;37.75;;;;;;;;;;6224723;23;20413;-95
2020/12/19 09:50:57;;;;;;;74.38;37.55;;;;;;;;;;6225420;23;20195;-96
2020/12/19 09:53:24;;;;;;;60.60;34.92;;;;;;;;;;6225124;23;20232;-95
2020/12/19 09:55:51;;;;;;;68.00;33.28;;;;;;;;;;6227665;23;20174;-95
2020/12/19 09:58:18;;;;;;;59.67;33.30;;;;;;;;;;6227379;23;20177;-95
2020/12/19 10:00:44;;;;;;;73.72;38.50;;;;;;;;;;6227625;23;20232;-95
2020/12/19 10:03:10;;;;;;;72.38;34.03;;;;;;;;;;6225240;23;20175;-93
2020/12/19 10:05:37;;;;;;;72.10;35.80;;;;;;;;;;6225758;23;20203;-94
2020/12/19 10:08:03;;;;;;;66.32;35.58;;;;;;;;;;6225353;23;20251;-95
2020/12/19 10:10:29;;;;;;;68.82;35.08;;;;;;;;;;6226427;23;20178;-94
2020/12/19 10:12:56;;;;;;;62.25;33.72;;;;;;;;;;6226009;23;20197;-94
2020/12/19 10:15:22;;;;;;;63.22;33.10;;;;;;;;;;6225470;23;20236;-94
2020/12/19 10:17:48;;;;;;;64.30;33.83;;;;;;;;;;6224655;23;20186;-94
2020/12/19 10:20:14;;;;;;;59.27;32.03;;;;;;;;;;6222684;23;20229;-95
2020/12/19 10:22:40;;;;;;;63.80;34.05;;;;;;;;;;6226854;23;20447;-94
2020/12/19 10:25:07;;;;;;;62.83;34.40;;;;;;;;;;6225915;23;20721;-94
2020/12/19 10:27:33;;;;;;;56.83;29.25;;;;;;;;;;6226899;23;20641;-95
2020/12/19 10:30:00;;;;;;;62.20;32.72;;;;;;;;;;6224038;23;20187;-94
2020/12/19 10:32:26;;;;;;;67.55;34.60;;;;;;;;;;6224548;23;20180;-94
2020/12/19 10:34:52;;;;;;;75.60;38.00;;;;;;;;;;6224385;23;20178;-95
2020/12/19 10:37:18;;;;;;;70.30;35.25;;;;;;;;;;6221927;23;20186;-94
2020/12/19 10:39:44;;;;;;;77.45;37.28;;;;;;;;;;6222976;23;20181;-94
2020/12/19 10:42:10;;;;;;;71.72;37.17;;;;;;;;;;6223951;23;20180;-95
2020/12/19 10:44:36;;;;;;;71.50;36.10;;;;;;;;;;6227131;23;20188;-96
2020/12/19 10:47:03;;;;;;;71.38;36.50;;;;;;;;;;6226330;23;20221;-95
2020/12/19 10:49:33;;;;;;;70.68;36.95;;;;;;;;;;6228433;23;20178;-96
2020/12/19 10:52:05;;;;;;;63.33;35.85;;;;;;;;;;6227765;23;21479;-95
2020/12/19 10:54:33;;;;;;;74.00;36.55;;;;;;;;;;6227675;23;20176;-96
2020/12/19 10:57:00;;;;;;;81.82;40.03;;;;;;;;;;6227593;23;20182;-95
2020/12/19 10:59:26;;;;;;;64.82;36.47;;;;;;;;;;6224893;23;20175;-93
2020/12/19 11:01:52;;;;;;;70.70;36.10;;;;;;;;;;6222815;23;20181;-95
2020/12/19 11:04:20;;;;;;;64.18;36.22;;;;;;;;;;6223656;23;20181;-95
2020/12/19 11:06:46;;;;;;;72.25;37.00;;;;;;;;;;6223919;23;20206;-93
2020/12/19 11:09:13;;;;;;;74.43;38.50;;;;;;;;;;6221853;23;20190;-93
2020/12/19 11:11:39;;;;;;;66.68;36.10;;;;;;;;;;6228838;23;20186;-94
2020/12/19 11:14:05;;;;;;;66.93;36.08;;;;;;;;;;6228657;23;20235;-95
2020/12/19 11:16:31;;;;;;;65.43;34.47;;;;;;;;;;6227931;23;20183;-94
2020/12/19 11:18:58;;;;;;;65.30;35.53;;;;;;;;;;6225942;23;20188;-94
2020/12/19 11:21:25;;;;;;;60.33;32.28;;;;;;;;;;6225169;23;20179;-94
2020/12/19 11:23:51;;;;;;;66.97;33.25;;;;;;;;;;6226489;23;20360;-95
2020/12/19 11:26:19;;;;;;;67.57;36.70;;;;;;;;;;6221013;23;20544;-96
2020/12/19 11:28:47;;;;;;;58.92;33.08;;;;;;;;;;6219572;23;20261;-96
2020/12/19 11:31:14;;;;;;;65.57;34.63;;;;;;;;;;6219931;23;20233;-96
2020/12/19 11:33:40;;;;;;;51.35;29.48;;;;;;;;;;6221198;23;20182;-94
2020/12/19 11:36:06;;;;;;;59.25;32.22;;;;;;;;;;6223696;23;20176;-95
2020/12/19 11:38:33;;;;;;;55.20;31.02;;;;;;;;;;6223458;23;20179;-95
2020/12/19 11:40:59;;;;;;;58.42;31.90;;;;;;;;;;6219702;23;20229;-96
2020/12/19 11:43:25;;;;;;;64.22;32.83;;;;;;;;;;6224269;23;20639;-95
2020/12/19 11:45:51;;;;;;;63.38;31.40;;;;;;;;;;6224560;23;20536;-96
2020/12/19 11:48:17;;;;;;;62.83;33.93;;;;;;;;;;6221245;23;20318;-94
2020/12/19 11:50:44;;;;;;;61.17;33.40;;;;;;;;;;6222507;23;20423;-95
2020/12/19 11:53:10;;;;;;;63.90;35.63;;;;;;;;;;6223947;23;20469;-95
2020/12/19 11:55:37;;;;;;;67.10;34.57;;;;;;;;;;6224908;23;20180;-95
2020/12/19 11:58:03;;;;;;;69.82;36.42;;;;;;;;;;6221662;23;20440;-94
2020/12/19 12:00:29;;;;;;;67.07;37.10;;;;;;;;;;6222414;23;20179;-95
2020/12/19 12:02:55;;;;;;;73.15;37.63;;;;;;;;;;6222752;23;20183;-96
2020/12/19 12:05:21;;;;;;;68.90;38.03;;;;;;;;;;6224687;23;20180;-96
2020/12/19 12:07:47;;;;;;;56.30;33.20;;;;;;;;;;6223246;23;20204;-94
2020/12/19 12:10:13;;;;;;;56.90;32.13;;;;;;;;;;6224747;23;20179;-95
2020/12/19 12:12:40;;;;;;;66.32;34.55;;;;;;;;;;6223784;23;20230;-95
2020/12/19 12:15:06;;;;;;;69.53;36.70;;;;;;;;;;6223824;23;20182;-95
2020/12/19 12:17:32;;;;;;;74.78;37.95;;;;;;;;;;6224350;23;20410;-95
2020/12/19 12:19:58;;;;;;;77.85;39.35;;;;;;;;;;6223043;23;20179;-95
2020/12/19 12:22:24;;;;;;;70.80;38.53;;;;;;;;;;6229271;23;20262;-96
2020/12/19 12:24:53;;;;;;;85.07;41.08;;;;;;;;;;6234085;23;20175;-95
2020/12/19 12:27:19;;;;;;;79.03;42.20;;;;;;;;;;6225509;23;20206;-95
2020/12/19 12:29:46;;;;;;;80.22;43.22;;;;;;;;;;6225672;23;20181;-96
2020/12/19 12:32:12;;;;;;;82.15;41.33;;;;;;;;;;6223199;23;20199;-96
2020/12/19 12:34:38;;;;;;;73.20;36.72;;;;;;;;;;6228723;23;20190;-95
2020/12/19 12:37:05;;;;;;;66.30;32.60;;;;;;;;;;6223328;23;20213;-96
2020/12/19 12:39:31;;;;;;;56.45;32.60;;;;;;;;;;6226456;23;20260;-96
2020/12/19 12:41:57;;;;;;;66.32;33.28;;;;;;;;;;6226154;23;20178;-96
2020/12/19 12:44:23;;;;;;;63.00;31.10;;;;;;;;;;6228270;23;20510;-96
2020/12/19 12:46:50;;;;;;;51.20;27.40;;;;;;;;;;6226967;23;20515;-96
2020/12/19 12:49:16;;;;;;;58.17;28.80;;;;;;;;;;6229571;23;20484;-95
2020/12/19 12:51:42;;;;;;;51.47;24.73;;;;;;;;;;6228259;23;20419;-96
2020/12/19 12:54:09;;;;;;;46.07;25.40;;;;;;;;;;6233623;23;20431;-96
2020/12/19 12:56:44;;;;;;;46.97;27.47;;;;;;;;;;6239110;23;20417;-96
2020/12/19 12:59:38;;;;;;;55.92;31.23;;;;;;;;;;6240966;23;20402;-96
2020/12/19 13:02:11;;;;;;;52.33;29.83;;;;;;;;;;6241091;23;20393;-96
2020/12/19 13:04:37;;;;;;;57.00;29.27;;;;;;;;;;6235875;23;20410;-96
2020/12/19 13:07:04;;;;;;;59.70;30.50;;;;;;;;;;6233668;23;20454;-96
2020/12/19 13:09:30;;;;;;;55.05;31.23;;;;;;;;;;6227018;23;20183;-96
2020/12/19 13:11:56;;;;;;;51.50;27.42;;;;;;;;;;6233393;23;20233;-96
2020/12/19 13:14:22;;;;;;;48.30;26.27;;;;;;;;;;6234145;23;20179;-96
2020/12/19 13:16:50;;;;;;;55.90;27.80;;;;;;;;;;6232491;23;20252;-96
2020/12/19 13:19:26;;;;;;;59.65;29.38;;;;;;;;;;6238032;23;20404;-96
2020/12/19 13:21:52;;;;;;;56.60;31.53;;;;;;;;;;6239975;23;20225;-96
2020/12/19 13:27:05;;;;;;;46.03;25.77;;;;;;;;;;6242724;23;20270;-96
2020/12/19 13:29:32;;;;;;;51.40;27.98;;;;;;;;;;6239508;23;20411;-95
2020/12/19 13:35:08;;;;;;;53.23;28.60;;;;;;;;;;6263526;22;20433;-96
2020/12/19 13:40:34;;;;;;;58.50;31.75;;;;;;;;;;6243081;23;20442;-96
2020/12/19 13:43:05;;;;;;;53.70;30.03;;;;;;;;;;6218853;22;20295;-96
2020/12/19 13:45:34;;;;;;;54.63;29.50;;;;;;;;;;6239875;23;20418;-96
2020/12/19 13:48:02;;;;;;;59.30;31.10;;;;;;;;;;6238793;23;20413;-96
2020/12/19 13:50:31;;;;;;;63.17;35.17;;;;;;;;;;6234991;23;20423;-96
2020/12/19 13:53:00;;;;;;;59.87;33.00;;;;;;;;;;6235958;23;20415;-96
2020/12/19 13:55:32;;;;;;;60.80;32.25;;;;;;;;;;6237399;23;20417;-96
2020/12/19 13:58:10;;;;;;;58.90;31.50;;;;;;;;;;6242794;23;20160;-96
2020/12/19 14:00:37;;;;;;;62.70;33.10;;;;;;;;;;6235633;23;20409;-96
2020/12/19 14:03:04;;;;;;;63.80;33.47;;;;;;;;;;6237218;23;20174;-96
2020/12/19 14:05:36;;;;;;;65.13;36.10;;;;;;;;;;6234113;23;20422;-96
2020/12/19 14:08:03;;;;;;;68.30;39.10;;;;;;;;;;6230938;23;20442;-96
2020/12/19 14:10:29;;;;;;;67.63;35.92;;;;;;;;;;6236732;23;20179;-96
2020/12/19 14:12:55;;;;;;;43.83;24.70;;;;;;;;;;6229425;23;20658;-96
2020/12/19 14:15:21;;;;;;;41.75;26.00;;;;;;;;;;6226755;23;20221;-95
2020/12/19 14:17:47;;;;;;;52.57;30.37;;;;;;;;;;6225431;23;20184;-96
2020/12/19 14:20:13;;;;;;;47.40;28.37;;;;;;;;;;6224131;23;20441;-96
2020/12/19 14:22:40;;;;;;;50.60;26.95;;;;;;;;;;6225026;23;20411;-94
2020/12/19 14:25:06;;;;;;;57.90;29.88;;;;;;;;;;6226075;23;20498;-95
2020/12/19 14:27:34;;;;;;;51.17;29.77;;;;;;;;;;6225698;23;20202;-94
2020/12/19 14:30:00;;;;;;;53.53;30.30;;;;;;;;;;6224535;23;20182;-93
2020/12/19 14:32:26;;;;;;;60.95;36.80;;;;;;;;;;6221879;23;20410;-96
2020/12/19 14:34:52;;;;;;;64.82;37.67;;;;;;;;;;6221947;23;20207;-93
2020/12/19 14:37:19;;;;;;;79.07;39.63;;;;;;;;;;6222776;23;20173;-94
2020/12/19 14:39:46;;;;;;;72.03;39.88;;;;;;;;;;6225150;23;20410;-93
2020/12/19 14:42:12;;;;;;;72.28;39.80;;;;;;;;;;6221705;23;20179;-93
2020/12/19 14:44:38;;;;;;;76.00;42.30;;;;;;;;;;6221279;23;20195;-94
2020/12/19 14:47:06;;;;;;;78.63;41.97;;;;;;;;;;6221610;23;20781;-94
2020/12/19 14:49:32;;;;;;;76.32;40.97;;;;;;;;;;6220072;23;20410;-94
2020/12/19 14:51:58;;;;;;;74.93;38.57;;;;;;;;;;6224291;23;20186;-93
2020/12/19 14:54:24;;;;;;;72.28;40.53;;;;;;;;;;6223117;23;20445;-94
2020/12/19 14:56:51;;;;;;;73.73;41.90;;;;;;;;;;6222562;23;20182;-93
2020/12/19 14:59:17;;;;;;;90.15;45.97;;;;;;;;;;6219365;23;20792;-94
2020/12/19 15:01:43;;;;;;;85.77;44.33;;;;;;;;;;6221501;23;20178;-95
2020/12/19 15:04:09;;;;;;;83.53;43.97;;;;;;;;;;6221060;23;20426;-94
2020/12/19 15:06:35;;;;;;;82.87;44.93;;;;;;;;;;6216584;23;20445;-93
2020/12/19 15:09:01;;;;;;;90.93;48.88;;;;;;;;;;6223501;23;20414;-94
2020/12/19 15:11:27;;;;;;;96.57;49.95;;;;;;;;;;6223485;23;20176;-94
2020/12/19 15:13:55;;;;;;;105.37;50.67;;;;;;;;;;6225306;23;20175;-96
2020/12/19 15:16:23;;;;;;;102.85;53.08;;;;;;;;;;6233361;23;20410;-96
2020/12/19 15:18:49;;;;;;;95.82;49.42;;;;;;;;;;6235326;23;20176;-95
2020/12/19 15:21:15;;;;;;;89.47;49.90;;;;;;;;;;6223876;23;20175;-96
2020/12/19 15:23:41;;;;;;;88.78;45.97;;;;;;;;;;6227225;23;20964;-95
2020/12/19 15:26:07;;;;;;;94.97;48.40;;;;;;;;;;6226242;23;20214;-95
2020/12/19 15:28:33;;;;;;;88.10;45.43;;;;;;;;;;6227433;23;20407;-95
2020/12/19 15:31:00;;;;;;;70.43;42.03;;;;;;;;;;6223790;23;20772;-96
2020/12/19 15:33:27;;;;;;;87.25;45.33;;;;;;;;;;6222662;23;20432;-95
2020/12/19 15:35:53;;;;;;;78.32;43.00;;;;;;;;;;6224506;23;20227;-96
2020/12/19 15:38:19;;;;;;;90.65;43.55;;;;;;;;;;6222410;23;20171;-95
2020/12/19 15:40:45;;;;;;;89.15;47.00;;;;;;;;;;6222722;23;20179;-96
2020/12/19 15:43:13;;;;;;;77.85;44.15;;;;;;;;;;6222930;23;20193;-96
2020/12/19 15:45:40;;;;;;;77.43;42.00;;;;;;;;;;6224648;23;20177;-96
2020/12/19 15:48:15;;;;;;;70.07;36.15;;;;;;;;;;6223748;23;20420;-95
2020/12/19 15:50:43;;;;;;;74.82;38.38;;;;;;;;;;6234887;23;20172;-96
2020/12/19 15:53:09;;;;;;;63.50;32.77;;;;;;;;;;6214854;23;20162;-96
2020/12/19 15:55:36;;;;;;;64.10;35.97;;;;;;;;;;6243545;22;20399;-95
2020/12/19 15:58:02;;;;;;;64.20;33.47;;;;;;;;;;6236077;23;20417;-96
2020/12/19 16:00:31;;;;;;;66.70;36.30;;;;;;;;;;6235411;23;20172;-96
2020/12/19 16:02:58;;;;;;;75.68;39.47;;;;;;;;;;6219759;22;20259;-96
2020/12/19 16:05:26;;;;;;;71.78;37.78;;;;;;;;;;6201440;23;20186;-96
2020/12/19 16:07:55;;;;;;;67.97;35.13;;;;;;;;;;6205084;23;20251;-96
2020/12/19 16:10:28;;;;;;;67.03;36.97;;;;;;;;;;6208523;23;20170;-96
2020/12/19 16:12:56;;;;;;;66.80;36.75;;;;;;;;;;6209936;23;20174;-96
2020/12/19 16:15:35;;;;;;;63.22;33.10;;;;;;;;;;6210046;23;20256;-96
2020/12/19 16:21:03;;;;;;;60.50;33.50;;;;;;;;;;6208382;23;20172;-96
2020/12/19 16:23:29;;;;;;;63.33;34.20;;;;;;;;;;6205042;23;20494;-96
2020/12/19 16:25:56;;;;;;;64.23;35.30;;;;;;;;;;6206386;23;20171;-96
2020/12/19 16:28:22;;;;;;;66.03;33.60;;;;;;;;;;6202304;23;20508;-95
2020/12/19 16:30:48;;;;;;;66.35;35.28;;;;;;;;;;6207502;23;20203;-96
2020/12/19 16:33:14;;;;;;;67.05;36.65;;;;;;;;;;6204669;23;20198;-96
2020/12/19 16:35:47;;;;;;;66.90;37.10;;;;;;;;;;6205080;23;20179;-96
2020/12/19 16:40:58;;;;;;;73.30;38.22;;;;;;;;;;6236459;23;20194;-96
2020/12/19 16:43:26;;;;;;;72.00;37.15;;;;;;;;;;6236993;23;20565;-96
2020/12/19 16:45:53;;;;;;;70.63;36.90;;;;;;;;;;6238431;23;20180;-96
2020/12/19 16:48:26;;;;;;;64.30;38.45;;;;;;;;;;6213734;23;20794;-96
2020/12/19 16:50:52;;;;;;;76.10;39.35;;;;;;;;;;6239745;23;20156;-96
2020/12/19 16:53:29;;;;;;;68.70;39.92;;;;;;;;;;6238845;23;20201;-96
2020/12/19 16:55:55;;;;;;;64.43;36.28;;;;;;;;;;6211090;23;20205;-95
2020/12/19 16:58:24;;;;;;;69.93;37.33;;;;;;;;;;6230521;23;20603;-96
2020/12/19 17:01:08;;;;;;;75.22;42.85;;;;;;;;;;6239850;23;20177;-96
2020/12/19 17:03:49;;;;;;;76.13;40.03;;;;;;;;;;6239064;23;20185;-94
2020/12/19 17:09:06;;;;;;;72.93;36.27;;;;;;;;;;6237668;22;20206;-96
2020/12/19 17:11:32;;;;;;;64.63;34.92;;;;;;;;;;6228380;23;20419;-93
2020/12/19 17:14:01;;;;;;;62.88;33.45;;;;;;;;;;6228055;23;20182;-96
2020/12/19 17:16:27;;;;;;;76.97;39.30;;;;;;;;;;6231511;23;20189;-95
2020/12/19 17:18:54;;;;;;;79.35;39.28;;;;;;;;;;6228257;23;20237;-95
2020/12/19 17:21:22;;;;;;;68.57;36.80;;;;;;;;;;6225318;23;20477;-95
2020/12/19 17:23:48;;;;;;;75.65;37.28;;;;;;;;;;6227697;23;20177;-95
2020/12/19 17:26:15;;;;;;;75.40;39.42;;;;;;;;;;6227044;23;20194;-95
2020/12/19 17:28:41;;;;;;;92.57;44.60;;;;;;;;;;6224888;23;20169;-94
2020/12/19 17:31:08;;;;;;;79.23;41.40;;;;;;;;;;6225774;23;20427;-92
2020/12/19 17:33:34;;;;;;;83.38;41.70;;;;;;;;;;6224556;23;20434;-93
2020/12/19 17:36:00;;;;;;;78.00;40.30;;;;;;;;;;6225983;23;20512;-92
2020/12/19 17:38:26;;;;;;;74.70;38.00;;;;;;;;;;6224841;23;20456;-95
2020/12/19 17:40:52;;;;;;;87.60;40.30;;;;;;;;;;6238802;23;20427;-93
2020/12/19 17:43:18;;;;;;;72.63;37.50;;;;;;;;;;6224072;23;20413;-93
2020/12/19 17:45:44;;;;;;;79.10;38.07;;;;;;;;;;6225012;23;20181;-92
2020/12/19 17:48:10;;;;;;;65.87;36.60;;;;;;;;;;6223533;23;20412;-92
2020/12/19 17:50:36;;;;;;;64.95;35.42;;;;;;;;;;6223390;23;20407;-93
2020/12/19 17:53:03;;;;;;;65.07;33.70;;;;;;;;;;6227260;23;20206;-93
2020/12/19 17:55:30;;;;;;;66.38;35.47;;;;;;;;;;6223446;23;20187;-94
2020/12/19 17:57:56;;;;;;;72.85;38.30;;;;;;;;;;6222759;23;20189;-95
2020/12/19 18:00:22;;;;;;;79.57;40.42;;;;;;;;;;6223555;23;20213;-95
2020/12/19 18:02:48;;;;;;;78.35;41.38;;;;;;;;;;6224179;23;20190;-96
2020/12/19 18:05:17;;;;;;;80.55;43.63;;;;;;;;;;6222087;23;20257;-92
2020/12/19 18:07:43;;;;;;;68.95;39.25;;;;;;;;;;6219303;23;20204;-93
2020/12/19 18:10:09;;;;;;;70.90;38.37;;;;;;;;;;6222746;23;20182;-94
2020/12/19 18:12:35;;;;;;;71.20;35.90;;;;;;;;;;6221980;23;20413;-94
2020/12/19 18:15:01;;;;;;;75.10;38.33;;;;;;;;;;6222648;23;20178;-95
2020/12/19 18:17:27;;;;;;;80.90;42.25;;;;;;;;;;6222193;23;20187;-95
2020/12/19 18:19:53;;;;;;;79.53;40.25;;;;;;;;;;6221184;23;20187;-94
2020/12/19 18:22:20;;;;;;;77.72;40.65;;;;;;;;;;6222123;23;20191;-94
2020/12/19 18:24:46;;;;;;;71.05;38.17;;;;;;;;;;6225128;23;20177;-95
2020/12/19 18:27:12;;;;;;;72.03;37.60;;;;;;;;;;6224409;23;20205;-94
2020/12/19 18:29:38;;;;;;;76.07;39.08;;;;;;;;;;6225459;23;20230;-95
2020/12/19 18:32:04;;;;;;;78.82;40.22;;;;;;;;;;6225615;23;20193;-95
2020/12/19 18:34:30;;;;;;;67.75;36.83;;;;;;;;;;6222790;23;20168;-93
2020/12/19 18:36:56;;;;;;;63.55;34.75;;;;;;;;;;6225339;23;20185;-95
2020/12/19 18:39:23;;;;;;;63.42;37.40;;;;;;;;;;6224721;23;20175;-94
2020/12/19 18:41:52;;;;;;;65.00;38.78;;;;;;;;;;6225003;23;20187;-94
2020/12/19 18:44:18;;;;;;;60.75;34.50;;;;;;;;;;6220700;23;20183;-94
2020/12/19 18:46:47;;;;;;;57.05;32.67;;;;;;;;;;6221959;23;20198;-94
2020/12/19 18:49:13;;;;;;;63.88;33.72;;;;;;;;;;6226174;23;20407;-93
2020/12/19 18:51:39;;;;;;;70.10;37.00;;;;;;;;;;6224430;23;20186;-94
2020/12/19 18:54:05;;;;;;;64.28;37.00;;;;;;;;;;6221627;23;20417;-93